Lela Franco — WDI2504 — position and weather

sailwx.info

Track history (hours):
 
Tides and Currents Weather Stations Pressure Air Temp Water Temp Dewpoint Dewpoint Depression Visibility Wind Speed Wind Dir Waves Ship Positions

Lela Franco

Owner: Harley Marine Services, Inc, Seattle, WA. More information available from US FCC via Universal Licensing System and Coast Guard Vessel Documentation Center.

Last reported at 2018-Feb-22 15:00 UTC. Time now 2018-Feb-22 15:10 UTC.
Position N 33°44' W 118°16'.

Length 18 m; draft 3 m.

Type: Towing. MMSI: 366926730.

Date/timePositionNaut miles runAvg speedWind from/ knotsBaromVisibWave heightAir tempDewpointWater temp
2018-Feb-22 15:00N 33°44' W 118°16'2 3.9
2018-Feb-22 14:30N 33°46' W 118°15'1 1.3
2018-Feb-22 14:00N 33°45' W 118°16'2 4.6
2018-Feb-22 13:30N 33°43' W 118°16'1 2.1
2018-Feb-22 12:59N 33°44' W 118°15'0 0.6
2018-Feb-22 12:30N 33°44' W 118°16'1 2.2
2018-Feb-22 12:00N 33°43' W 118°15'1 2.5
2018-Feb-22 11:30N 33°44' W 118°16'0 0.0
2018-Feb-22 11:00N 33°44' W 118°16'0 0.0
2018-Feb-22 10:30N 33°44' W 118°16'0 0.6
2018-Feb-22 10:00N 33°44' W 118°15'2 3.1
2018-Feb-22 09:30N 33°45' W 118°16'0 0.4
2018-Feb-22 09:00N 33°45' W 118°16'0 0.0
2018-Feb-22 08:30N 33°45' W 118°16'0 0.0
2018-Feb-22 08:00N 33°45' W 118°16'0 0.0
2018-Feb-22 07:31N 33°45' W 118°16'2 3.9
2018-Feb-22 06:56N 33°43' W 118°16'1 2.0
2018-Feb-22 06:30N 33°44' W 118°16'0 0.0
2018-Feb-22 06:00N 33°44' W 118°16'0 0.1
2018-Feb-22 05:28N 33°44' W 118°16'0 0.0
2018-Feb-22 05:00N 33°44' W 118°16'0 0.0
2018-Feb-22 04:30N 33°44' W 118°16'1 1.2
2018-Feb-22 04:00N 33°43' W 118°16'2 4.8
2018-Feb-22 03:30N 33°46' W 118°16'0 0.2
2018-Feb-22 03:00N 33°46' W 118°15'2 4.9
2018-Feb-22 02:30N 33°43' W 118°16'3 6.4
2018-Feb-22 01:59N 33°46' W 118°13'1 2.1
2018-Feb-22 01:29N 33°47' W 118°13'0 0.0
2018-Feb-22 01:00N 33°47' W 118°13'1 1.1
2018-Feb-22 00:30N 33°46' W 118°13'0 0.4
2018-Feb-22 00:00N 33°46' W 118°13'3 5.0
2018-Feb-21 23:30N 33°44' W 118°12'1 1.1
2018-Feb-21 23:00N 33°44' W 118°12'1 1.9
2018-Feb-21 22:30N 33°43' W 118°13'3 5.8
2018-Feb-21 22:00N 33°45' W 118°16'0 0.8
2018-Feb-21 21:30N 33°45' W 118°16'0 0.0
2018-Feb-21 21:00N 33°45' W 118°16'0 1.1
2018-Feb-21 20:42N 33°45' W 118°16'0 1.7
2018-Feb-21 20:30N 33°45' W 118°16'0263.0
2018-Feb-21 20:30N 33°45' W 118°16'2 3.8
2018-Feb-21 20:01N 33°43' W 118°16'2105.1
2018-Feb-21 19:59N 33°45' W 118°16'0 0.0
2018-Feb-21 19:30N 33°45' W 118°16'55996.5
2018-Feb-21 19:30N 33°40' W 118°15'510.1
2018-Feb-21 19:00N 33°45' W 118°16'9131.5
2018-Feb-21 18:56N 33°36' W 118°15'920.8
2018-Feb-21 18:30N 33°45' W 118°16'1 1.2
2018-Feb-21 18:00N 33°46' W 118°15'0 0.1
2018-Feb-21 17:30N 33°46' W 118°16'2 3.4
2018-Feb-21 17:00N 33°44' W 118°16'1 2.5
2018-Feb-21 16:30N 33°45' W 118°16'0 0.6
2018-Feb-21 16:01N 33°45' W 118°16'0 0.0
2018-Feb-21 15:30N 33°45' W 118°16'0 0.0
2018-Feb-21 15:00N 33°45' W 118°16'1 1.2
2018-Feb-21 14:30N 33°46' W 118°16'3 5.5
2018-Feb-21 14:00N 33°43' W 118°15'3 5.4
2018-Feb-21 13:30N 33°45' W 118°14'1 1.5
2018-Feb-21 13:00N 33°46' W 118°13'0 0.8
2018-Feb-21 12:29N 33°46' W 118°13'1 2.4
2018-Feb-21 11:59N 33°45' W 118°14'525.5
2018-Feb-21 11:47N 33°40' W 118°15'2 7.0
2018-Feb-21 11:30N 33°42' W 118°15'31454.3
2018-Feb-21 11:30N 33°45' W 118°14'3 5.1
2018-Feb-21 11:00N 33°44' W 118°17'348.6
2018-Feb-21 10:57N 33°45' W 118°14'2 4.6
2018-Feb-21 10:30N 33°45' W 118°16'247.7
2018-Feb-21 10:28N 33°45' W 118°14'0 0.0
2018-Feb-21 09:57N 33°45' W 118°14'0 0.0
2018-Feb-21 09:29N 33°45' W 118°14'0 0.0
2018-Feb-21 08:59N 33°45' W 118°14'0 0.0
2018-Feb-21 08:30N 33°45' W 118°14'0 0.0
2018-Feb-21 07:20N 33°45' W 118°14'0 0.1
2018-Feb-21 06:58N 33°45' W 118°14'1 2.5
2018-Feb-21 06:29N 33°44' W 118°13'3 5.7
2018-Feb-21 06:00N 33°44' W 118°17'1 2.3
2018-Feb-21 05:30N 33°45' W 118°16'1 2.7
2018-Feb-21 05:00N 33°44' W 118°16'0 0.0
2018-Feb-21 04:30N 33°44' W 118°16'1 2.9
2018-Feb-21 04:00N 33°45' W 118°16'0 0.0
2018-Feb-21 03:30N 33°45' W 118°16'0 0.3
2018-Feb-21 03:00N 33°45' W 118°16'2 3.7
2018-Feb-21 02:30N 33°43' W 118°16'3 5.7
2018-Feb-21 02:00N 33°42' W 118°13'3 5.6
2018-Feb-21 01:30N 33°44' W 118°16'0 0.3
2018-Feb-21 01:00N 33°44' W 118°16'0 0.0
2018-Feb-21 00:30N 33°44' W 118°16'1 2.4
2018-Feb-21 00:00N 33°45' W 118°16'1 1.9
2018-Feb-20 23:30N 33°46' W 118°16'1 1.4
2018-Feb-20 23:00N 33°45' W 118°16'2 3.2
2018-Feb-20 22:31N 33°44' W 118°16'1 2.9
2018-Feb-20 22:00N 33°43' W 118°15'1 2.0
2018-Feb-20 21:30N 33°43' W 118°16'1 1.6
2018-Feb-20 21:00N 33°43' W 118°15'3 5.1
2018-Feb-20 20:30N 33°45' W 118°13'2 3.0
2018-Feb-20 20:00N 33°46' W 118°13'0 0.0
2018-Feb-20 19:30N 33°46' W 118°13'0 0.5
2018-Feb-20 19:00N 33°46' W 118°13'0 0.8
2018-Feb-20 18:30N 33°46' W 118°13'3 5.3
2018-Feb-20 18:00N 33°43' W 118°14'2 3.4
2018-Feb-20 17:30N 33°44' W 118°16'1 1.7
2018-Feb-20 17:00N 33°43' W 118°15'4 7.4
2018-Feb-20 16:30N 33°46' W 118°13'0 0.8
2018-Feb-20 16:00N 33°46' W 118°14'1 1.0
2018-Feb-20 15:30N 33°46' W 118°14'1 1.4
2018-Feb-20 15:00N 33°46' W 118°15'1 1.2
2018-Feb-20 14:30N 33°46' W 118°16'2 3.8
2018-Feb-20 13:55N 33°45' W 118°13'0 0.6
2018-Feb-20 13:29N 33°45' W 118°13'0 0.2
2018-Feb-20 12:59N 33°45' W 118°13'0 0.0
2018-Feb-20 12:05N 33°45' W 118°13'0 5.1
2018-Feb-20 12:00N 33°46' W 118°13'1 1.2
2018-Feb-20 11:21N 33°47' W 118°13'0 1.4
2018-Feb-20 11:00N 33°46' W 118°13'3 4.5
2018-Feb-20 10:21N 33°44' W 118°12'2 4.6
2018-Feb-20 09:50N 33°41' W 118°11'3 9.5
2018-Feb-20 09:30N 33°44' W 118°12'0 0.6
2018-Feb-20 08:57N 33°44' W 118°12'0 0.0
2018-Feb-20 06:27N 33°44' W 118°12'3 4.3
2018-Feb-20 05:42N 33°43' W 118°15'1 6.5
2018-Feb-20 05:30N 33°44' W 118°16'0 0.3
2018-Feb-20 05:00N 33°44' W 118°16'0 0.0
2018-Feb-20 04:30N 33°44' W 118°16'0 0.0
2018-Feb-20 04:00N 33°44' W 118°16'0 0.0
2018-Feb-20 03:27N 33°44' W 118°16'2 4.3
2018-Feb-20 03:01N 33°46' W 118°16'2 4.2
2018-Feb-20 02:30N 33°44' W 118°16'0 0.8
2018-Feb-20 02:00N 33°43' W 118°16'1 3.0
2018-Feb-20 01:30N 33°45' W 118°16'1 1.3
2018-Feb-20 01:00N 33°45' W 118°16'1 1.2
2018-Feb-20 00:30N 33°45' W 118°16'2 3.7
2018-Feb-20 00:00N 33°43' W 118°16'1 2.8
2018-Feb-19 23:30N 33°43' W 118°15'1 2.4
2018-Feb-19 23:00N 33°44' W 118°16'0 0.2
2018-Feb-19 22:30N 33°44' W 118°16'1 1.1
2018-Feb-19 22:00N 33°43' W 118°16'3 6.9
2018-Feb-19 21:30N 33°44' W 118°12'1 2.9
2018-Feb-19 21:00N 33°44' W 118°10'0 0.7
2018-Feb-19 20:29N 33°44' W 118°09'0 0.6
2018-Feb-19 20:00N 33°44' W 118°10'0 0.3
2018-Feb-19 19:30N 33°44' W 118°10'2 3.9
2018-Feb-19 19:00N 33°44' W 118°12'3 5.9
2018-Feb-19 18:30N 33°44' W 118°16'0 0.0
2018-Feb-19 18:00N 33°44' W 118°16'0 0.0
2018-Feb-19 17:30N 33°44' W 118°16'0 0.0
2018-Feb-19 17:00N 33°44' W 118°16'1 1.3
2018-Feb-19 16:31N 33°43' W 118°16'3 5.1
2018-Feb-19 16:00N 33°46' W 118°16'2 4.2
2018-Feb-19 15:30N 33°44' W 118°16'1 1.3
2018-Feb-19 15:00N 33°44' W 118°16'2 3.5
2018-Feb-19 14:30N 33°46' W 118°16'1 1.6
2018-Feb-19 14:00N 33°45' W 118°16'3 4.6
2018-Feb-19 13:27N 33°43' W 118°15'0 0.2
2018-Feb-19 13:00N 33°43' W 118°15'1 1.1
2018-Feb-19 12:30N 33°43' W 118°16'2 4.6
2018-Feb-19 12:00N 33°45' W 118°16'1 1.6
2018-Feb-19 11:30N 33°44' W 118°17'2 4.8
2018-Feb-19 11:00N 33°43' W 118°14'2 4.8
2018-Feb-19 10:29N 33°44' W 118°12'0 0.0
2018-Feb-19 09:56N 33°44' W 118°12'0 0.0
2018-Feb-19 09:29N 33°44' W 118°12'0 0.0
2018-Feb-19 09:00N 33°44' W 118°12'0 0.0
2018-Feb-19 08:28N 33°44' W 118°12'0 0.0
2018-Feb-19 07:59N 33°44' W 118°12'1 0.9
2018-Feb-19 07:00N 33°45' W 118°13'1 2.1
2018-Feb-19 06:21N 33°43' W 118°13'2 6.6
2018-Feb-19 06:01N 33°43' W 118°15'1 2.0
2018-Feb-19 05:30N 33°44' W 118°16'0 0.0
2018-Feb-19 05:00N 33°44' W 118°16'0 0.0
2018-Feb-19 04:30N 33°44' W 118°16'0 0.0
2018-Feb-19 04:00N 33°44' W 118°16'1 2.1
2018-Feb-19 03:30N 33°43' W 118°15'3 6.4
2018-Feb-19 03:00N 33°46' W 118°13'1 1.6
2018-Feb-19 02:29N 33°46' W 118°13'1 1.7
2018-Feb-19 02:00N 33°46' W 118°13'3 5.1
2018-Feb-19 01:30N 33°43' W 118°11'0 0.5
2018-Feb-19 01:00N 33°44' W 118°12'1 1.2
2018-Feb-19 00:30N 33°44' W 118°12'1 2.1
2018-Feb-19 00:00N 33°45' W 118°13'0 0.0
2018-Feb-18 23:30N 33°45' W 118°13'0 0.4
2018-Feb-18 23:00N 33°45' W 118°13'2 3.2
2018-Feb-18 22:30N 33°43' W 118°14'2 3.7
2018-Feb-18 22:00N 33°44' W 118°16'0 0.0
2018-Feb-18 21:30N 33°44' W 118°16'0 0.0
2018-Feb-18 21:00N 33°44' W 118°16'0 0.4
2018-Feb-18 20:30N 33°44' W 118°16'3 7.0
2018-Feb-18 20:00N 33°44' W 118°12'2 4.1
2018-Feb-18 19:30N 33°44' W 118°09'0 0.1
2018-Feb-18 19:00N 33°44' W 118°09'3 5.6
2018-Feb-18 18:30N 33°45' W 118°12'2 3.7
2018-Feb-18 17:57N 33°43' W 118°14'2 3.9
2018-Feb-18 17:30N 33°44' W 118°16'0 0.0
2018-Feb-18 17:00N 33°44' W 118°16'0 0.0
2018-Feb-18 16:30N 33°44' W 118°16'0 0.2
2018-Feb-18 16:00N 33°44' W 118°16'1 1.5
2018-Feb-18 15:30N 33°43' W 118°16'1 2.3
2018-Feb-18 15:00N 33°43' W 118°14'1 1.5
2018-Feb-18 14:30N 33°43' W 118°14'0 0.0
2018-Feb-18 13:52N 33°43' W 118°14'0 0.1
2018-Feb-18 13:25N 33°43' W 118°14'1 2.9
2018-Feb-18 12:58N 33°44' W 118°13'2 3.7
2018-Feb-18 12:29N 33°46' W 118°14'0 0.1
2018-Feb-18 12:00N 33°46' W 118°14'0 0.0
2018-Feb-18 11:28N 33°46' W 118°14'0 0.0
2018-Feb-18 11:00N 33°46' W 118°14'0 0.0
2018-Feb-18 10:30N 33°46' W 118°14'1 2.8
2018-Feb-18 10:00N 33°45' W 118°13'2 2.2
2018-Feb-18 09:11N 33°44' W 118°11'1 3.1
2018-Feb-18 09:00N 33°44' W 118°12'0 0.0
2018-Feb-18 08:30N 33°44' W 118°12'0 0.0
2018-Feb-18 08:00N 33°44' W 118°12'0 0.0
2018-Feb-18 07:30N 33°44' W 118°12'0 0.0
2018-Feb-18 07:00N 33°44' W 118°12'0 0.0
2018-Feb-18 06:29N 33°44' W 118°12'0 0.0
2018-Feb-18 05:58N 33°44' W 118°12'3 5.5
2018-Feb-18 05:23N 33°43' W 118°15'1 3.1
2018-Feb-18 05:00N 33°44' W 118°16'0 0.0
2018-Feb-18 04:30N 33°44' W 118°16'1 1.5
2018-Feb-18 04:00N 33°43' W 118°16'2 4.6
2018-Feb-18 03:30N 33°46' W 118°16'0 0.0
2018-Feb-18 03:00N 33°46' W 118°16'0 0.1
2018-Feb-18 02:30N 33°45' W 118°16'1 1.1
2018-Feb-18 02:00N 33°45' W 118°16'2 4.9
2018-Feb-18 01:30N 33°43' W 118°15'0 0.6
2018-Feb-18 01:00N 33°43' W 118°15'1 2.8
2018-Feb-18 00:30N 33°44' W 118°16'0 0.0
2018-Feb-18 00:00N 33°44' W 118°16'0 0.0
2018-Feb-17 23:30N 33°44' W 118°16'0 0.0
2018-Feb-17 23:00N 33°44' W 118°16'1 2.0
2018-Feb-17 22:30N 33°45' W 118°17'1 2.0
2018-Feb-17 22:01N 33°46' W 118°16'2 3.6
2018-Feb-17 21:30N 33°46' W 118°14'2 4.6
2018-Feb-17 21:00N 33°44' W 118°13'3 5.2
2018-Feb-17 20:30N 33°43' W 118°16'2 3.8
2018-Feb-17 20:00N 33°45' W 118°17'0 0.0
2018-Feb-17 19:30N 33°45' W 118°17'1 1.9
2018-Feb-17 19:00N 33°44' W 118°16'0 0.0
2018-Feb-17 18:30N 33°44' W 118°16'0 0.0
2018-Feb-17 18:00N 33°44' W 118°16'0 0.1
2018-Feb-17 17:30N 33°44' W 118°16'1 1.2
2018-Feb-17 17:00N 33°44' W 118°16'0 0.0
2018-Feb-17 16:30N 33°44' W 118°16'0 0.0
2018-Feb-17 16:00N 33°44' W 118°16'0 0.0
2018-Feb-17 15:30N 33°44' W 118°16'0 0.0
2018-Feb-17 15:00N 33°44' W 118°16'0 0.0
2018-Feb-17 14:30N 33°44' W 118°16'0 0.0
2018-Feb-17 14:00N 33°44' W 118°16'0 0.0
2018-Feb-17 13:30N 33°44' W 118°16'2 3.1
2018-Feb-17 12:49N 33°44' W 118°13'1 4.2
2018-Feb-17 12:30N 33°46' W 118°13'0 0.8
2018-Feb-17 11:55N 33°46' W 118°13'0 0.4
2018-Feb-17 11:28N 33°46' W 118°13'0 0.0
2018-Feb-17 10:53N 33°46' W 118°13'0 0.0
2018-Feb-17 10:30N 33°46' W 118°13'0 0.0
2018-Feb-17 10:00N 33°46' W 118°13'0 0.0
2018-Feb-17 09:30N 33°46' W 118°13'0 0.0
2018-Feb-17 09:00N 33°46' W 118°13'0 0.0
2018-Feb-17 08:30N 33°46' W 118°13'0 0.0
2018-Feb-17 06:57N 33°46' W 118°13'3 6.4
2018-Feb-17 06:30N 33°45' W 118°16'1 1.6
2018-Feb-17 06:00N 33°44' W 118°17'1 2.0
2018-Feb-17 05:30N 33°44' W 118°16'0 0.1
2018-Feb-17 05:00N 33°44' W 118°16'0 0.0
2018-Feb-17 04:30N 33°44' W 118°16'0 0.0
2018-Feb-17 03:58N 33°44' W 118°16'0 0.0
2018-Feb-17 03:30N 33°44' W 118°16'2 4.2
2018-Feb-17 03:00N 33°46' W 118°16'3 5.0
2018-Feb-17 02:29N 33°43' W 118°16'1 1.3
2018-Feb-17 02:00N 33°44' W 118°16'0 0.0
2018-Feb-17 01:30N 33°44' W 118°16'0 0.0
2018-Feb-17 01:00N 33°44' W 118°16'0 0.0
2018-Feb-17 00:30N 33°44' W 118°16'0 0.0
2018-Feb-17 00:00N 33°44' W 118°16'0 0.0
2018-Feb-16 23:30N 33°44' W 118°16'0 0.0
2018-Feb-16 23:00N 33°44' W 118°16'2 3.4
2018-Feb-16 22:30N 33°43' W 118°14'2 4.6
2018-Feb-16 22:00N 33°45' W 118°12'3 6.2
2018-Feb-16 21:30N 33°43' W 118°15'1 2.2
2018-Feb-16 21:00N 33°44' W 118°16'0 0.0
2018-Feb-16 20:30N 33°44' W 118°16'0 0.0
2018-Feb-16 20:00N 33°44' W 118°16'0 0.0
2018-Feb-16 19:30N 33°44' W 118°16'0 0.0
2018-Feb-16 19:00N 33°44' W 118°16'0 0.0
2018-Feb-16 18:30N 33°44' W 118°16'0 0.0
2018-Feb-16 18:00N 33°44' W 118°16'0 0.0
2018-Feb-16 17:30N 33°44' W 118°16'0 0.0
2018-Feb-16 17:00N 33°44' W 118°16'0 0.0
2018-Feb-16 16:30N 33°44' W 118°16'0 0.0
2018-Feb-16 16:00N 33°44' W 118°16'0 0.0
2018-Feb-16 15:30N 33°44' W 118°16'0 0.0
2018-Feb-16 15:00N 33°44' W 118°16'0 0.4
2018-Feb-16 14:30N 33°44' W 118°16'1 1.4
2018-Feb-16 14:00N 33°44' W 118°15'1 1.5
2018-Feb-16 13:30N 33°44' W 118°16'0 0.7
2018-Feb-16 12:58N 33°44' W 118°15'0 0.6
2018-Feb-16 12:30N 33°44' W 118°16'0 0.0
2018-Feb-16 11:59N 33°44' W 118°16'0 0.0
2018-Feb-16 11:30N 33°44' W 118°16'0 0.0
2018-Feb-16 11:00N 33°44' W 118°16'0 0.6
2018-Feb-16 10:30N 33°44' W 118°16'3 6.3
2018-Feb-16 10:00N 33°44' W 118°12'1 0.9
2018-Feb-16 09:07N 33°44' W 118°12'2 8.9
2018-Feb-16 08:55N 33°43' W 118°14'3 6.3
2018-Feb-16 08:30N 33°45' W 118°17'1 2.5
2018-Feb-16 08:00N 33°46' W 118°15'2 3.5
2018-Feb-16 07:30N 33°44' W 118°16'0 0.0
2018-Feb-16 07:00N 33°44' W 118°16'0 0.0
2018-Feb-16 06:30N 33°44' W 118°16'0 0.0
2018-Feb-16 06:00N 33°44' W 118°16'0 0.0
2018-Feb-16 05:30N 33°44' W 118°16'0 0.0
2018-Feb-16 05:00N 33°44' W 118°16'0 0.0
2018-Feb-16 04:30N 33°44' W 118°16'0 0.0
2018-Feb-16 04:00N 33°44' W 118°16'0 0.0
2018-Feb-16 03:30N 33°44' W 118°16'1 1.3
2018-Feb-16 02:53N 33°43' W 118°17'1 2.0
2018-Feb-16 02:30N 33°44' W 118°16'0 0.1
2018-Feb-16 02:00N 33°44' W 118°16'0 0.0
2018-Feb-16 01:30N 33°44' W 118°16'0 0.0
2018-Feb-16 01:00N 33°44' W 118°16'0 0.4
2018-Feb-16 00:30N 33°44' W 118°16'162.9
2018-Feb-16 00:29N 33°45' W 118°16'3 7.2
2018-Feb-16 00:00N 33°45' W 118°12'36114.5
2018-Feb-16 00:00N 33°43' W 118°16'3 6.6
2018-Feb-15 23:30N 33°45' W 118°12'45321.6
2018-Feb-15 23:30N 33°41' W 118°16'4 8.9
2018-Feb-15 23:00N 33°45' W 118°13'82508.1
2018-Feb-15 23:00N 33°39' W 118°20'611.7
2018-Feb-15 22:30N 33°43' W 118°15'10211.0
2018-Feb-15 22:28N 33°36' W 118°24'1022.1
2018-Feb-15 22:00N 33°44' W 118°16'1576.8
2018-Feb-15 21:49N 33°33' W 118°29'2 7.9
2018-Feb-15 21:30N 33°32' W 118°31'192513.7
2018-Feb-15 21:30N 33°44' W 118°13'1 2.6
2018-Feb-15 21:00N 33°45' W 118°13'2428637.8
2018-Feb-15 21:00N 33°30' W 118°35'2142.0
2018-Feb-15 20:30N 33°43' W 118°15'2320850.7
2018-Feb-15 20:30N 33°27' W 118°36'2346.3
2018-Feb-15 20:00N 33°43' W 118°15'2 4.9
2018-Feb-15 19:30N 33°44' W 118°13'3 5.3
2018-Feb-15 19:00N 33°44' W 118°16'2 3.7
2018-Feb-15 18:30N 33°46' W 118°15'2 3.5
2018-Feb-15 18:00N 33°46' W 118°13'3 6.5
2018-Feb-15 17:30N 33°43' W 118°16'1 1.4
2018-Feb-15 17:00N 33°44' W 118°16'23225.7
2018-Feb-15 16:54N 33°26' W 118°33'2359.2
2018-Feb-15 16:30N 33°44' W 118°16'241008.3
2018-Feb-15 16:29N 33°28' W 118°36'2449.4
2018-Feb-15 16:00N 33°44' W 118°16'2118777.2
2018-Feb-15 16:00N 33°30' W 118°35'2141.8
2018-Feb-15 15:30N 33°44' W 118°16'1 1.8
2018-Feb-15 15:00N 33°43' W 118°16'922.3
2018-Feb-15 14:35N 33°37' W 118°24'13167.0
2018-Feb-15 14:30N 33°45' W 118°13'0 0.1
2018-Feb-15 14:00N 33°45' W 118°13'512.3
2018-Feb-15 13:35N 33°41' W 118°16'1 7.7
2018-Feb-15 13:30N 33°41' W 118°16'4115.5
2018-Feb-15 13:28N 33°44' W 118°12'4 8.4
2018-Feb-15 13:00N 33°43' W 118°16'3407.0
2018-Feb-15 12:59N 33°45' W 118°13'0 0.1
2018-Feb-15 12:30N 33°45' W 118°13'3756.9
2018-Feb-15 12:30N 33°45' W 118°16'3 5.9
2018-Feb-15 12:00N 33°45' W 118°13'0 0.0
2018-Feb-15 11:30N 33°45' W 118°13'0 0.0
2018-Feb-15 11:00N 33°45' W 118°13'0 0.0
2018-Feb-15 10:30N 33°45' W 118°13'0 0.0
2018-Feb-15 10:00N 33°45' W 118°13'1 0.7
2018-Feb-15 09:02N 33°44' W 118°12'1 4.2
2018-Feb-15 08:52N 33°44' W 118°12'0 0.7
2018-Feb-15 08:28N 33°44' W 118°12'3 6.7
2018-Feb-15 08:00N 33°44' W 118°16'2 3.3
2018-Feb-15 07:30N 33°43' W 118°14'2 2.9
2018-Feb-15 06:47N 33°45' W 118°12'3 9.6
2018-Feb-15 06:29N 33°43' W 118°15'1 2.4
2018-Feb-15 06:00N 33°44' W 118°16'0 0.0
2018-Feb-15 05:30N 33°44' W 118°16'0 0.0
2018-Feb-15 05:00N 33°44' W 118°16'0 0.0
2018-Feb-15 04:30N 33°44' W 118°16'0 0.2
2018-Feb-15 04:00N 33°44' W 118°16'0 0.5
2018-Feb-15 03:30N 33°44' W 118°15'0 0.0
2018-Feb-15 03:00N 33°44' W 118°15'0 0.5
2018-Feb-15 02:30N 33°44' W 118°16'0 0.0
2018-Feb-15 02:00N 33°44' W 118°16'0 0.0
2018-Feb-15 01:30N 33°44' W 118°16'2 3.7
2018-Feb-15 01:00N 33°43' W 118°13'2 3.4
2018-Feb-15 00:30N 33°45' W 118°13'3 5.7
2018-Feb-15 00:00N 33°44' W 118°16'0 0.5
2018-Feb-14 23:30N 33°44' W 118°16'0 0.9
2018-Feb-14 23:00N 33°44' W 118°15'1 1.2
2018-Feb-14 22:30N 33°43' W 118°16'2 4.6
2018-Feb-14 22:00N 33°42' W 118°14'3 5.2
2018-Feb-14 21:30N 33°44' W 118°16'0 0.0
2018-Feb-14 21:00N 33°44' W 118°16'0 0.0
2018-Feb-14 20:30N 33°44' W 118°16'0 0.0
2018-Feb-14 20:00N 33°44' W 118°16'0 0.0
2018-Feb-14 19:30N 33°44' W 118°16'0 0.0
2018-Feb-14 19:00N 33°44' W 118°16'0 0.0
2018-Feb-14 18:30N 33°44' W 118°16'0 0.0
2018-Feb-14 18:00N 33°44' W 118°16'0 0.0
2018-Feb-14 17:30N 33°44' W 118°16'1 1.2
2018-Feb-14 17:00N 33°43' W 118°16'3 5.1
2018-Feb-14 16:30N 33°46' W 118°16'0 0.0
2018-Feb-14 16:00N 33°46' W 118°16'0 0.7
2018-Feb-14 15:30N 33°45' W 118°16'2 3.7
2018-Feb-14 15:00N 33°44' W 118°16'3 5.4
2018-Feb-14 14:26N 33°42' W 118°13'1 1.8
2018-Feb-14 13:59N 33°42' W 118°12'2 3.1
2018-Feb-14 13:21N 33°43' W 118°15'2 4.7
2018-Feb-14 12:56N 33°44' W 118°13'2 4.7
2018-Feb-14 12:31N 33°46' W 118°13'0 0.4
2018-Feb-14 12:00N 33°46' W 118°13'0 0.6
2018-Feb-14 11:30N 33°46' W 118°13'1 2.0
2018-Feb-14 11:00N 33°45' W 118°13'0 0.0
2018-Feb-14 10:30N 33°45' W 118°13'0 0.0
2018-Feb-14 10:00N 33°45' W 118°13'0 0.0
2018-Feb-14 09:30N 33°45' W 118°13'0 0.0
2018-Feb-14 09:00N 33°45' W 118°13'0 0.0
2018-Feb-14 08:30N 33°45' W 118°13'0 0.0
2018-Feb-14 08:00N 33°45' W 118°13'1 0.3
2018-Feb-14 06:20N 33°45' W 118°12'3 8.8
2018-Feb-14 06:00N 33°43' W 118°15'1 1.9
2018-Feb-14 05:30N 33°44' W 118°15'0 0.5
2018-Feb-14 05:00N 33°44' W 118°16'0 0.0
2018-Feb-14 04:30N 33°44' W 118°16'0 0.0
2018-Feb-14 04:00N 33°44' W 118°16'1 1.2
2018-Feb-14 03:30N 33°43' W 118°16'3 5.9
2018-Feb-14 03:01N 33°44' W 118°12'0 0.9
2018-Feb-14 02:30N 33°45' W 118°12'1 1.2
2018-Feb-14 01:45N 33°44' W 118°12'0 0.2
2018-Feb-14 01:30N 33°44' W 118°12'0 0.1
2018-Feb-14 01:00N 33°44' W 118°12'0 0.0
2018-Feb-14 00:30N 33°44' W 118°12'1 1.7
2018-Feb-14 00:00N 33°44' W 118°12'3 5.2
2018-Feb-13 23:30N 33°46' W 118°15'2 4.9
2018-Feb-13 23:11N 33°45' W 118°16'1 4.3
2018-Feb-13 23:00N 33°45' W 118°16'1103.8
2018-Feb-13 22:59N 33°45' W 118°16'2 4.2
2018-Feb-13 22:31N 33°43' W 118°16'13242.3
2018-Feb-13 22:30N 33°44' W 118°16'2 3.0
2018-Feb-13 22:00N 33°43' W 118°15'31646.5
2018-Feb-13 22:00N 33°40' W 118°15'4 7.7
2018-Feb-13 21:30N 33°36' W 118°16'87252.3
2018-Feb-13 21:30N 33°44' W 118°16'0 0.0
2018-Feb-13 21:00N 33°44' W 118°16'0 0.0
2018-Feb-13 20:30N 33°44' W 118°16'0 0.0
2018-Feb-13 20:00N 33°44' W 118°16'0 0.0
2018-Feb-13 19:29N 33°44' W 118°16'0 0.0
2018-Feb-13 19:00N 33°44' W 118°16'0 0.0
2018-Feb-13 18:30N 33°44' W 118°16'0 0.0
2018-Feb-13 18:00N 33°44' W 118°16'0 0.0
2018-Feb-13 17:30N 33°44' W 118°16'0 0.0
2018-Feb-13 17:00N 33°44' W 118°16'0 0.5
2018-Feb-13 16:30N 33°44' W 118°15'1 1.2
2018-Feb-13 16:00N 33°43' W 118°16'1 2.8
2018-Feb-13 15:30N 33°45' W 118°16'2 4.6
2018-Feb-13 15:00N 33°43' W 118°15'3 5.5
2018-Feb-13 14:28N 33°45' W 118°12'1 1.8
2018-Feb-13 14:00N 33°44' W 118°12'1 1.2
2018-Feb-13 13:30N 33°44' W 118°12'617.6
2018-Feb-13 13:10N 33°39' W 118°15'530.3
2018-Feb-13 13:00N 33°43' W 118°16'368.8
2018-Feb-13 12:58N 33°40' W 118°15'4 8.2
2018-Feb-13 12:30N 33°44' W 118°15'1691.1
2018-Feb-13 12:30N 33°43' W 118°16'2 3.6
2018-Feb-13 12:00N 33°45' W 118°17'2233.5
2018-Feb-13 12:00N 33°43' W 118°15'3 5.4
2018-Feb-13 11:30N 33°45' W 118°16'047.4
2018-Feb-13 11:30N 33°45' W 118°16'0 0.0
2018-Feb-13 11:00N 33°45' W 118°16'0 0.0
2018-Feb-13 10:30N 33°45' W 118°16'1 1.3
2018-Feb-13 09:59N 33°44' W 118°16'1 1.3
2018-Feb-13 09:30N 33°44' W 118°16'0 0.0
2018-Feb-13 09:00N 33°44' W 118°16'0 0.0
2018-Feb-13 08:30N 33°44' W 118°16'0 0.0
2018-Feb-13 08:00N 33°44' W 118°16'0 0.0
2018-Feb-13 07:30N 33°44' W 118°16'0 0.0
2018-Feb-13 06:56N 33°44' W 118°16'0 0.0
2018-Feb-13 06:30N 33°44' W 118°16'0 0.0
2018-Feb-13 06:00N 33°44' W 118°16'0 0.0
2018-Feb-13 05:29N 33°44' W 118°16'0 0.0
2018-Feb-13 05:00N 33°44' W 118°16'0 0.0
2018-Feb-13 04:30N 33°44' W 118°16'0 0.0
2018-Feb-13 04:01N 33°44' W 118°16'1 1.1
2018-Feb-13 03:30N 33°44' W 118°16'2 4.6
2018-Feb-13 03:00N 33°43' W 118°14'0 0.1
2018-Feb-13 02:15N 33°43' W 118°14'0 0.9
2018-Feb-13 01:57N 33°44' W 118°13'2 3.4
2018-Feb-13 01:30N 33°45' W 118°13'2 4.4
2018-Feb-13 01:00N 33°44' W 118°10'0 0.0
2018-Feb-13 00:30N 33°44' W 118°10'1 2.5
2018-Feb-13 00:00N 33°44' W 118°12'0 0.0
2018-Feb-12 23:30N 33°44' W 118°12'0 0.0
2018-Feb-12 23:00N 33°44' W 118°12'0 0.0
2018-Feb-12 22:30N 33°44' W 118°12'0 0.5
2018-Feb-12 22:00N 33°44' W 118°11'0 0.1
2018-Feb-12 21:30N 33°44' W 118°11'0 0.0
2018-Feb-12 21:00N 33°44' W 118°11'2 4.1
2018-Feb-12 20:30N 33°45' W 118°14'1 1.2
2018-Feb-12 20:00N 33°45' W 118°14'1 2.6
2018-Feb-12 19:30N 33°44' W 118°13'3 5.3
2018-Feb-12 19:00N 33°44' W 118°16'2 4.4
2018-Feb-12 18:30N 33°46' W 118°16'3 5.2
2018-Feb-12 18:00N 33°43' W 118°16'1 1.1
2018-Feb-12 17:30N 33°44' W 118°16'0 0.0
2018-Feb-12 17:00N 33°44' W 118°16'0 0.0
2018-Feb-12 16:30N 33°44' W 118°16'0 0.0
2018-Feb-12 16:00N 33°44' W 118°16'1 2.0
2018-Feb-12 15:30N 33°43' W 118°15'  
Track history (hours):
 
Tides and Currents Weather Stations Pressure Air Temp Water Temp Dewpoint Dewpoint Depression Visibility Wind Speed Wind Dir Waves Ship Positions

Lela Franco

Owner: Harley Marine Services, Inc, Seattle, WA. More information available from US FCC via Universal Licensing System and Coast Guard Vessel Documentation Center.

Last reported at 2018-Feb-22 15:00 UTC. Time now 2018-Feb-22 15:10 UTC.
Position N 33°44' W 118°16'.

Length 18 m; draft 3 m.

Type: Towing. MMSI: 366926730.

Date/timePositionNaut miles runAvg speedWind from/ knotsBaromVisibWave heightAir tempDewpointWater temp
2018-Feb-22 15:00N 33°44' W 118°16'2 3.9
2018-Feb-22 14:30N 33°46' W 118°15'1 1.3
2018-Feb-22 14:00N 33°45' W 118°16'2 4.6
2018-Feb-22 13:30N 33°43' W 118°16'1 2.1
2018-Feb-22 12:59N 33°44' W 118°15'0 0.6
2018-Feb-22 12:30N 33°44' W 118°16'1 2.2
2018-Feb-22 12:00N 33°43' W 118°15'1 2.5
2018-Feb-22 11:30N 33°44' W 118°16'0 0.0
2018-Feb-22 11:00N 33°44' W 118°16'0 0.0
2018-Feb-22 10:30N 33°44' W 118°16'0 0.6
2018-Feb-22 10:00N 33°44' W 118°15'2 3.1
2018-Feb-22 09:30N 33°45' W 118°16'0 0.4
2018-Feb-22 09:00N 33°45' W 118°16'0 0.0
2018-Feb-22 08:30N 33°45' W 118°16'0 0.0
2018-Feb-22 08:00N 33°45' W 118°16'0 0.0
2018-Feb-22 07:31N 33°45' W 118°16'2 3.9
2018-Feb-22 06:56N 33°43' W 118°16'1 2.0
2018-Feb-22 06:30N 33°44' W 118°16'0 0.0
2018-Feb-22 06:00N 33°44' W 118°16'0 0.1
2018-Feb-22 05:28N 33°44' W 118°16'0 0.0
2018-Feb-22 05:00N 33°44' W 118°16'0 0.0
2018-Feb-22 04:30N 33°44' W 118°16'1 1.2
2018-Feb-22 04:00N 33°43' W 118°16'2 4.8
2018-Feb-22 03:30N 33°46' W 118°16'0 0.2
2018-Feb-22 03:00N 33°46' W 118°15'2 4.9
2018-Feb-22 02:30N 33°43' W 118°16'3 6.4
2018-Feb-22 01:59N 33°46' W 118°13'1 2.1
2018-Feb-22 01:29N 33°47' W 118°13'0 0.0
2018-Feb-22 01:00N 33°47' W 118°13'1 1.1
2018-Feb-22 00:30N 33°46' W 118°13'0 0.4
2018-Feb-22 00:00N 33°46' W 118°13'3 5.0
2018-Feb-21 23:30N 33°44' W 118°12'1 1.1
2018-Feb-21 23:00N 33°44' W 118°12'1 1.9
2018-Feb-21 22:30N 33°43' W 118°13'3 5.8
2018-Feb-21 22:00N 33°45' W 118°16'0 0.8
2018-Feb-21 21:30N 33°45' W 118°16'0 0.0
2018-Feb-21 21:00N 33°45' W 118°16'0 1.1
2018-Feb-21 20:42N 33°45' W 118°16'0 1.7
2018-Feb-21 20:30N 33°45' W 118°16'0263.0
2018-Feb-21 20:30N 33°45' W 118°16'2 3.8
2018-Feb-21 20:01N 33°43' W 118°16'2105.1
2018-Feb-21 19:59N 33°45' W 118°16'0 0.0
2018-Feb-21 19:30N 33°45' W 118°16'55996.5
2018-Feb-21 19:30N 33°40' W 118°15'510.1
2018-Feb-21 19:00N 33°45' W 118°16'9131.5
2018-Feb-21 18:56N 33°36' W 118°15'920.8
2018-Feb-21 18:30N 33°45' W 118°16'1 1.2
2018-Feb-21 18:00N 33°46' W 118°15'0 0.1
2018-Feb-21 17:30N 33°46' W 118°16'2 3.4
2018-Feb-21 17:00N 33°44' W 118°16'1 2.5
2018-Feb-21 16:30N 33°45' W 118°16'0 0.6
2018-Feb-21 16:01N 33°45' W 118°16'0 0.0
2018-Feb-21 15:30N 33°45' W 118°16'0 0.0
2018-Feb-21 15:00N 33°45' W 118°16'1 1.2
2018-Feb-21 14:30N 33°46' W 118°16'3 5.5
2018-Feb-21 14:00N 33°43' W 118°15'3 5.4
2018-Feb-21 13:30N 33°45' W 118°14'1 1.5
2018-Feb-21 13:00N 33°46' W 118°13'0 0.8
2018-Feb-21 12:29N 33°46' W 118°13'1 2.4
2018-Feb-21 11:59N 33°45' W 118°14'525.5
2018-Feb-21 11:47N 33°40' W 118°15'2 7.0
2018-Feb-21 11:30N 33°42' W 118°15'31454.3
2018-Feb-21 11:30N 33°45' W 118°14'3 5.1
2018-Feb-21 11:00N 33°44' W 118°17'348.6
2018-Feb-21 10:57N 33°45' W 118°14'2 4.6
2018-Feb-21 10:30N 33°45' W 118°16'247.7
2018-Feb-21 10:28N 33°45' W 118°14'0 0.0
2018-Feb-21 09:57N 33°45' W 118°14'0 0.0
2018-Feb-21 09:29N 33°45' W 118°14'0 0.0
2018-Feb-21 08:59N 33°45' W 118°14'0 0.0
2018-Feb-21 08:30N 33°45' W 118°14'0 0.0
2018-Feb-21 07:20N 33°45' W 118°14'0 0.1
2018-Feb-21 06:58N 33°45' W 118°14'1 2.5
2018-Feb-21 06:29N 33°44' W 118°13'3 5.7
2018-Feb-21 06:00N 33°44' W 118°17'1 2.3
2018-Feb-21 05:30N 33°45' W 118°16'1 2.7
2018-Feb-21 05:00N 33°44' W 118°16'0 0.0
2018-Feb-21 04:30N 33°44' W 118°16'1 2.9
2018-Feb-21 04:00N 33°45' W 118°16'0 0.0
2018-Feb-21 03:30N 33°45' W 118°16'0 0.3
2018-Feb-21 03:00N 33°45' W 118°16'2 3.7
2018-Feb-21 02:30N 33°43' W 118°16'3 5.7
2018-Feb-21 02:00N 33°42' W 118°13'3 5.6
2018-Feb-21 01:30N 33°44' W 118°16'0 0.3
2018-Feb-21 01:00N 33°44' W 118°16'0 0.0
2018-Feb-21 00:30N 33°44' W 118°16'1 2.4
2018-Feb-21 00:00N 33°45' W 118°16'1 1.9
2018-Feb-20 23:30N 33°46' W 118°16'1 1.4
2018-Feb-20 23:00N 33°45' W 118°16'2 3.2
2018-Feb-20 22:31N 33°44' W 118°16'1 2.9
2018-Feb-20 22:00N 33°43' W 118°15'1 2.0
2018-Feb-20 21:30N 33°43' W 118°16'1 1.6
2018-Feb-20 21:00N 33°43' W 118°15'3 5.1
2018-Feb-20 20:30N 33°45' W 118°13'2 3.0
2018-Feb-20 20:00N 33°46' W 118°13'0 0.0
2018-Feb-20 19:30N 33°46' W 118°13'0 0.5
2018-Feb-20 19:00N 33°46' W 118°13'0 0.8
2018-Feb-20 18:30N 33°46' W 118°13'3 5.3
2018-Feb-20 18:00N 33°43' W 118°14'2 3.4
2018-Feb-20 17:30N 33°44' W 118°16'1 1.7
2018-Feb-20 17:00N 33°43' W 118°15'4 7.4
2018-Feb-20 16:30N 33°46' W 118°13'0 0.8
2018-Feb-20 16:00N 33°46' W 118°14'1 1.0
2018-Feb-20 15:30N 33°46' W 118°14'1 1.4
2018-Feb-20 15:00N 33°46' W 118°15'1 1.2
2018-Feb-20 14:30N 33°46' W 118°16'2 3.8
2018-Feb-20 13:55N 33°45' W 118°13'0 0.6
2018-Feb-20 13:29N 33°45' W 118°13'0 0.2
2018-Feb-20 12:59N 33°45' W 118°13'0 0.0
2018-Feb-20 12:05N 33°45' W 118°13'0 5.1
2018-Feb-20 12:00N 33°46' W 118°13'1 1.2
2018-Feb-20 11:21N 33°47' W 118°13'0 1.4
2018-Feb-20 11:00N 33°46' W 118°13'3 4.5
2018-Feb-20 10:21N 33°44' W 118°12'2 4.6
2018-Feb-20 09:50N 33°41' W 118°11'3 9.5
2018-Feb-20 09:30N 33°44' W 118°12'0 0.6
2018-Feb-20 08:57N 33°44' W 118°12'0 0.0
2018-Feb-20 06:27N 33°44' W 118°12'3 4.3
2018-Feb-20 05:42N 33°43' W 118°15'1 6.5
2018-Feb-20 05:30N 33°44' W 118°16'0 0.3
2018-Feb-20 05:00N 33°44' W 118°16'0 0.0
2018-Feb-20 04:30N 33°44' W 118°16'0 0.0
2018-Feb-20 04:00N 33°44' W 118°16'0 0.0
2018-Feb-20 03:27N 33°44' W 118°16'2 4.3
2018-Feb-20 03:01N 33°46' W 118°16'2 4.2
2018-Feb-20 02:30N 33°44' W 118°16'0 0.8
2018-Feb-20 02:00N 33°43' W 118°16'1 3.0
2018-Feb-20 01:30N 33°45' W 118°16'1 1.3
2018-Feb-20 01:00N 33°45' W 118°16'1 1.2
2018-Feb-20 00:30N 33°45' W 118°16'2 3.7
2018-Feb-20 00:00N 33°43' W 118°16'1 2.8
2018-Feb-19 23:30N 33°43' W 118°15'1 2.4
2018-Feb-19 23:00N 33°44' W 118°16'0 0.2
2018-Feb-19 22:30N 33°44' W 118°16'1 1.1
2018-Feb-19 22:00N 33°43' W 118°16'3 6.9
2018-Feb-19 21:30N 33°44' W 118°12'1 2.9
2018-Feb-19 21:00N 33°44' W 118°10'0 0.7
2018-Feb-19 20:29N 33°44' W 118°09'0 0.6
2018-Feb-19 20:00N 33°44' W 118°10'0 0.3
2018-Feb-19 19:30N 33°44' W 118°10'2 3.9
2018-Feb-19 19:00N 33°44' W 118°12'3 5.9
2018-Feb-19 18:30N 33°44' W 118°16'0 0.0
2018-Feb-19 18:00N 33°44' W 118°16'0 0.0
2018-Feb-19 17:30N 33°44' W 118°16'0 0.0
2018-Feb-19 17:00N 33°44' W 118°16'1 1.3
2018-Feb-19 16:31N 33°43' W 118°16'3 5.1
2018-Feb-19 16:00N 33°46' W 118°16'2 4.2
2018-Feb-19 15:30N 33°44' W 118°16'1 1.3
2018-Feb-19 15:00N 33°44' W 118°16'2 3.5
2018-Feb-19 14:30N 33°46' W 118°16'1 1.6
2018-Feb-19 14:00N 33°45' W 118°16'3 4.6
2018-Feb-19 13:27N 33°43' W 118°15'0 0.2
2018-Feb-19 13:00N 33°43' W 118°15'1 1.1
2018-Feb-19 12:30N 33°43' W 118°16'2 4.6
2018-Feb-19 12:00N 33°45' W 118°16'1 1.6
2018-Feb-19 11:30N 33°44' W 118°17'2 4.8
2018-Feb-19 11:00N 33°43' W 118°14'2 4.8
2018-Feb-19 10:29N 33°44' W 118°12'0 0.0
2018-Feb-19 09:56N 33°44' W 118°12'0 0.0
2018-Feb-19 09:29N 33°44' W 118°12'0 0.0
2018-Feb-19 09:00N 33°44' W 118°12'0 0.0
2018-Feb-19 08:28N 33°44' W 118°12'0 0.0
2018-Feb-19 07:59N 33°44' W 118°12'1 0.9
2018-Feb-19 07:00N 33°45' W 118°13'1 2.1
2018-Feb-19 06:21N 33°43' W 118°13'2 6.6
2018-Feb-19 06:01N 33°43' W 118°15'1 2.0
2018-Feb-19 05:30N 33°44' W 118°16'0 0.0
2018-Feb-19 05:00N 33°44' W 118°16'0 0.0
2018-Feb-19 04:30N 33°44' W 118°16'0 0.0
2018-Feb-19 04:00N 33°44' W 118°16'1 2.1
2018-Feb-19 03:30N 33°43' W 118°15'3 6.4
2018-Feb-19 03:00N 33°46' W 118°13'1 1.6
2018-Feb-19 02:29N 33°46' W 118°13'1 1.7
2018-Feb-19 02:00N 33°46' W 118°13'3 5.1
2018-Feb-19 01:30N 33°43' W 118°11'0 0.5
2018-Feb-19 01:00N 33°44' W 118°12'1 1.2
2018-Feb-19 00:30N 33°44' W 118°12'1 2.1
2018-Feb-19 00:00N 33°45' W 118°13'0 0.0
2018-Feb-18 23:30N 33°45' W 118°13'0 0.4
2018-Feb-18 23:00N 33°45' W 118°13'2 3.2
2018-Feb-18 22:30N 33°43' W 118°14'2 3.7
2018-Feb-18 22:00N 33°44' W 118°16'0 0.0
2018-Feb-18 21:30N 33°44' W 118°16'0 0.0
2018-Feb-18 21:00N 33°44' W 118°16'0 0.4
2018-Feb-18 20:30N 33°44' W 118°16'3 7.0
2018-Feb-18 20:00N 33°44' W 118°12'2 4.1
2018-Feb-18 19:30N 33°44' W 118°09'0 0.1
2018-Feb-18 19:00N 33°44' W 118°09'3 5.6
2018-Feb-18 18:30N 33°45' W 118°12'2 3.7
2018-Feb-18 17:57N 33°43' W 118°14'2 3.9
2018-Feb-18 17:30N 33°44' W 118°16'0 0.0
2018-Feb-18 17:00N 33°44' W 118°16'0 0.0
2018-Feb-18 16:30N 33°44' W 118°16'0 0.2
2018-Feb-18 16:00N 33°44' W 118°16'1 1.5
2018-Feb-18 15:30N 33°43' W 118°16'1 2.3
2018-Feb-18 15:00N 33°43' W 118°14'1 1.5
2018-Feb-18 14:30N 33°43' W 118°14'0 0.0
2018-Feb-18 13:52N 33°43' W 118°14'0 0.1
2018-Feb-18 13:25N 33°43' W 118°14'1 2.9
2018-Feb-18 12:58N 33°44' W 118°13'2 3.7
2018-Feb-18 12:29N 33°46' W 118°14'0 0.1
2018-Feb-18 12:00N 33°46' W 118°14'0 0.0
2018-Feb-18 11:28N 33°46' W 118°14'0 0.0
2018-Feb-18 11:00N 33°46' W 118°14'0 0.0
2018-Feb-18 10:30N 33°46' W 118°14'1 2.8
2018-Feb-18 10:00N 33°45' W 118°13'2 2.2
2018-Feb-18 09:11N 33°44' W 118°11'1 3.1
2018-Feb-18 09:00N 33°44' W 118°12'0 0.0
2018-Feb-18 08:30N 33°44' W 118°12'0 0.0
2018-Feb-18 08:00N 33°44' W 118°12'0 0.0
2018-Feb-18 07:30N 33°44' W 118°12'0 0.0
2018-Feb-18 07:00N 33°44' W 118°12'0 0.0
2018-Feb-18 06:29N 33°44' W 118°12'0 0.0
2018-Feb-18 05:58N 33°44' W 118°12'3 5.5
2018-Feb-18 05:23N 33°43' W 118°15'1 3.1
2018-Feb-18 05:00N 33°44' W 118°16'0 0.0
2018-Feb-18 04:30N 33°44' W 118°16'1 1.5
2018-Feb-18 04:00N 33°43' W 118°16'2 4.6
2018-Feb-18 03:30N 33°46' W 118°16'0 0.0
2018-Feb-18 03:00N 33°46' W 118°16'0 0.1
2018-Feb-18 02:30N 33°45' W 118°16'1 1.1
2018-Feb-18 02:00N 33°45' W 118°16'2 4.9
2018-Feb-18 01:30N 33°43' W 118°15'0 0.6
2018-Feb-18 01:00N 33°43' W 118°15'1 2.8
2018-Feb-18 00:30N 33°44' W 118°16'0 0.0
2018-Feb-18 00:00N 33°44' W 118°16'0 0.0
2018-Feb-17 23:30N 33°44' W 118°16'0 0.0
2018-Feb-17 23:00N 33°44' W 118°16'1 2.0
2018-Feb-17 22:30N 33°45' W 118°17'1 2.0
2018-Feb-17 22:01N 33°46' W 118°16'2 3.6
2018-Feb-17 21:30N 33°46' W 118°14'2 4.6
2018-Feb-17 21:00N 33°44' W 118°13'3 5.2
2018-Feb-17 20:30N 33°43' W 118°16'2 3.8
2018-Feb-17 20:00N 33°45' W 118°17'0 0.0
2018-Feb-17 19:30N 33°45' W 118°17'1 1.9
2018-Feb-17 19:00N 33°44' W 118°16'0 0.0
2018-Feb-17 18:30N 33°44' W 118°16'0 0.0
2018-Feb-17 18:00N 33°44' W 118°16'0 0.1
2018-Feb-17 17:30N 33°44' W 118°16'1 1.2
2018-Feb-17 17:00N 33°44' W 118°16'0 0.0
2018-Feb-17 16:30N 33°44' W 118°16'0 0.0
2018-Feb-17 16:00N 33°44' W 118°16'0 0.0
2018-Feb-17 15:30N 33°44' W 118°16'0 0.0
2018-Feb-17 15:00N 33°44' W 118°16'0 0.0
2018-Feb-17 14:30N 33°44' W 118°16'0 0.0
2018-Feb-17 14:00N 33°44' W 118°16'0 0.0
2018-Feb-17 13:30N 33°44' W 118°16'2 3.1
2018-Feb-17 12:49N 33°44' W 118°13'1 4.2
2018-Feb-17 12:30N 33°46' W 118°13'0 0.8
2018-Feb-17 11:55N 33°46' W 118°13'0 0.4
2018-Feb-17 11:28N 33°46' W 118°13'0 0.0
2018-Feb-17 10:53N 33°46' W 118°13'0 0.0
2018-Feb-17 10:30N 33°46' W 118°13'0 0.0
2018-Feb-17 10:00N 33°46' W 118°13'0 0.0
2018-Feb-17 09:30N 33°46' W 118°13'0 0.0
2018-Feb-17 09:00N 33°46' W 118°13'0 0.0
2018-Feb-17 08:30N 33°46' W 118°13'0 0.0
2018-Feb-17 06:57N 33°46' W 118°13'3 6.4
2018-Feb-17 06:30N 33°45' W 118°16'1 1.6
2018-Feb-17 06:00N 33°44' W 118°17'1 2.0
2018-Feb-17 05:30N 33°44' W 118°16'0 0.1
2018-Feb-17 05:00N 33°44' W 118°16'0 0.0
2018-Feb-17 04:30N 33°44' W 118°16'0 0.0
2018-Feb-17 03:58N 33°44' W 118°16'0 0.0
2018-Feb-17 03:30N 33°44' W 118°16'2 4.2
2018-Feb-17 03:00N 33°46' W 118°16'3 5.0
2018-Feb-17 02:29N 33°43' W 118°16'1 1.3
2018-Feb-17 02:00N 33°44' W 118°16'0 0.0
2018-Feb-17 01:30N 33°44' W 118°16'0 0.0
2018-Feb-17 01:00N 33°44' W 118°16'0 0.0
2018-Feb-17 00:30N 33°44' W 118°16'0 0.0
2018-Feb-17 00:00N 33°44' W 118°16'0 0.0
2018-Feb-16 23:30N 33°44' W 118°16'0 0.0
2018-Feb-16 23:00N 33°44' W 118°16'2 3.4
2018-Feb-16 22:30N 33°43' W 118°14'2 4.6
2018-Feb-16 22:00N 33°45' W 118°12'3 6.2
2018-Feb-16 21:30N 33°43' W 118°15'1 2.2
2018-Feb-16 21:00N 33°44' W 118°16'0 0.0
2018-Feb-16 20:30N 33°44' W 118°16'0 0.0
2018-Feb-16 20:00N 33°44' W 118°16'0 0.0
2018-Feb-16 19:30N 33°44' W 118°16'0 0.0
2018-Feb-16 19:00N 33°44' W 118°16'0 0.0
2018-Feb-16 18:30N 33°44' W 118°16'0 0.0
2018-Feb-16 18:00N 33°44' W 118°16'0 0.0
2018-Feb-16 17:30N 33°44' W 118°16'0 0.0
2018-Feb-16 17:00N 33°44' W 118°16'0 0.0
2018-Feb-16 16:30N 33°44' W 118°16'0 0.0
2018-Feb-16 16:00N 33°44' W 118°16'0 0.0
2018-Feb-16 15:30N 33°44' W 118°16'0 0.0
2018-Feb-16 15:00N 33°44' W 118°16'0 0.4
2018-Feb-16 14:30N 33°44' W 118°16'1 1.4
2018-Feb-16 14:00N 33°44' W 118°15'1 1.5
2018-Feb-16 13:30N 33°44' W 118°16'0 0.7
2018-Feb-16 12:58N 33°44' W 118°15'0 0.6
2018-Feb-16 12:30N 33°44' W 118°16'0 0.0
2018-Feb-16 11:59N 33°44' W 118°16'0 0.0
2018-Feb-16 11:30N 33°44' W 118°16'0 0.0
2018-Feb-16 11:00N 33°44' W 118°16'0 0.6
2018-Feb-16 10:30N 33°44' W 118°16'3 6.3
2018-Feb-16 10:00N 33°44' W 118°12'1 0.9
2018-Feb-16 09:07N 33°44' W 118°12'2 8.9
2018-Feb-16 08:55N 33°43' W 118°14'3 6.3
2018-Feb-16 08:30N 33°45' W 118°17'1 2.5
2018-Feb-16 08:00N 33°46' W 118°15'2 3.5
2018-Feb-16 07:30N 33°44' W 118°16'0 0.0
2018-Feb-16 07:00N 33°44' W 118°16'0 0.0
2018-Feb-16 06:30N 33°44' W 118°16'0 0.0
2018-Feb-16 06:00N 33°44' W 118°16'0 0.0
2018-Feb-16 05:30N 33°44' W 118°16'0 0.0
2018-Feb-16 05:00N 33°44' W 118°16'0 0.0
2018-Feb-16 04:30N 33°44' W 118°16'0 0.0
2018-Feb-16 04:00N 33°44' W 118°16'0 0.0
2018-Feb-16 03:30N 33°44' W 118°16'1 1.3
2018-Feb-16 02:53N 33°43' W 118°17'1 2.0
2018-Feb-16 02:30N 33°44' W 118°16'0 0.1
2018-Feb-16 02:00N 33°44' W 118°16'0 0.0
2018-Feb-16 01:30N 33°44' W 118°16'0 0.0
2018-Feb-16 01:00N 33°44' W 118°16'0 0.4
2018-Feb-16 00:30N 33°44' W 118°16'162.9
2018-Feb-16 00:29N 33°45' W 118°16'3 7.2
2018-Feb-16 00:00N 33°45' W 118°12'36114.5
2018-Feb-16 00:00N 33°43' W 118°16'3 6.6
2018-Feb-15 23:30N 33°45' W 118°12'45321.6
2018-Feb-15 23:30N 33°41' W 118°16'4 8.9
2018-Feb-15 23:00N 33°45' W 118°13'82508.1
2018-Feb-15 23:00N 33°39' W 118°20'611.7
2018-Feb-15 22:30N 33°43' W 118°15'10211.0
2018-Feb-15 22:28N 33°36' W 118°24'1022.1
2018-Feb-15 22:00N 33°44' W 118°16'1576.8
2018-Feb-15 21:49N 33°33' W 118°29'2 7.9
2018-Feb-15 21:30N 33°32' W 118°31'192513.7
2018-Feb-15 21:30N 33°44' W 118°13'1 2.6
2018-Feb-15 21:00N 33°45' W 118°13'2428637.8
2018-Feb-15 21:00N 33°30' W 118°35'2142.0
2018-Feb-15 20:30N 33°43' W 118°15'2320850.7
2018-Feb-15 20:30N 33°27' W 118°36'2346.3
2018-Feb-15 20:00N 33°43' W 118°15'2 4.9
2018-Feb-15 19:30N 33°44' W 118°13'3 5.3
2018-Feb-15 19:00N 33°44' W 118°16'2 3.7
2018-Feb-15 18:30N 33°46' W 118°15'2 3.5
2018-Feb-15 18:00N 33°46' W 118°13'3 6.5
2018-Feb-15 17:30N 33°43' W 118°16'1 1.4
2018-Feb-15 17:00N 33°44' W 118°16'23225.7
2018-Feb-15 16:54N 33°26' W 118°33'2359.2
2018-Feb-15 16:30N 33°44' W 118°16'241008.3
2018-Feb-15 16:29N 33°28' W 118°36'2449.4
2018-Feb-15 16:00N 33°44' W 118°16'2118777.2
2018-Feb-15 16:00N 33°30' W 118°35'2141.8
2018-Feb-15 15:30N 33°44' W 118°16'1 1.8
2018-Feb-15 15:00N 33°43' W 118°16'922.3
2018-Feb-15 14:35N 33°37' W 118°24'13167.0
2018-Feb-15 14:30N 33°45' W 118°13'0 0.1
2018-Feb-15 14:00N 33°45' W 118°13'512.3
2018-Feb-15 13:35N 33°41' W 118°16'1 7.7
2018-Feb-15 13:30N 33°41' W 118°16'4115.5
2018-Feb-15 13:28N 33°44' W 118°12'4 8.4
2018-Feb-15 13:00N 33°43' W 118°16'3407.0
2018-Feb-15 12:59N 33°45' W 118°13'0 0.1
2018-Feb-15 12:30N 33°45' W 118°13'3756.9
2018-Feb-15 12:30N 33°45' W 118°16'3 5.9
2018-Feb-15 12:00N 33°45' W 118°13'0 0.0
2018-Feb-15 11:30N 33°45' W 118°13'0 0.0
2018-Feb-15 11:00N 33°45' W 118°13'0 0.0
2018-Feb-15 10:30N 33°45' W 118°13'0 0.0
2018-Feb-15 10:00N 33°45' W 118°13'1 0.7
2018-Feb-15 09:02N 33°44' W 118°12'1 4.2
2018-Feb-15 08:52N 33°44' W 118°12'0 0.7
2018-Feb-15 08:28N 33°44' W 118°12'3 6.7
2018-Feb-15 08:00N 33°44' W 118°16'2 3.3
2018-Feb-15 07:30N 33°43' W 118°14'2 2.9
2018-Feb-15 06:47N 33°45' W 118°12'3 9.6
2018-Feb-15 06:29N 33°43' W 118°15'1 2.4
2018-Feb-15 06:00N 33°44' W 118°16'0 0.0
2018-Feb-15 05:30N 33°44' W 118°16'0 0.0
2018-Feb-15 05:00N 33°44' W 118°16'0 0.0
2018-Feb-15 04:30N 33°44' W 118°16'0 0.2
2018-Feb-15 04:00N 33°44' W 118°16'0 0.5
2018-Feb-15 03:30N 33°44' W 118°15'0 0.0
2018-Feb-15 03:00N 33°44' W 118°15'0 0.5
2018-Feb-15 02:30N 33°44' W 118°16'0 0.0
2018-Feb-15 02:00N 33°44' W 118°16'0 0.0
2018-Feb-15 01:30N 33°44' W 118°16'2 3.7
2018-Feb-15 01:00N 33°43' W 118°13'2 3.4
2018-Feb-15 00:30N 33°45' W 118°13'3 5.7
2018-Feb-15 00:00N 33°44' W 118°16'0 0.5
2018-Feb-14 23:30N 33°44' W 118°16'0 0.9
2018-Feb-14 23:00N 33°44' W 118°15'1 1.2
2018-Feb-14 22:30N 33°43' W 118°16'2 4.6
2018-Feb-14 22:00N 33°42' W 118°14'3 5.2
2018-Feb-14 21:30N 33°44' W 118°16'0 0.0
2018-Feb-14 21:00N 33°44' W 118°16'0 0.0
2018-Feb-14 20:30N 33°44' W 118°16'0 0.0
2018-Feb-14 20:00N 33°44' W 118°16'0 0.0
2018-Feb-14 19:30N 33°44' W 118°16'0 0.0
2018-Feb-14 19:00N 33°44' W 118°16'0 0.0
2018-Feb-14 18:30N 33°44' W 118°16'0 0.0
2018-Feb-14 18:00N 33°44' W 118°16'0 0.0
2018-Feb-14 17:30N 33°44' W 118°16'1 1.2
2018-Feb-14 17:00N 33°43' W 118°16'3 5.1
2018-Feb-14 16:30N 33°46' W 118°16'0 0.0
2018-Feb-14 16:00N 33°46' W 118°16'0 0.7
2018-Feb-14 15:30N 33°45' W 118°16'2 3.7
2018-Feb-14 15:00N 33°44' W 118°16'3 5.4
2018-Feb-14 14:26N 33°42' W 118°13'1 1.8
2018-Feb-14 13:59N 33°42' W 118°12'2 3.1
2018-Feb-14 13:21N 33°43' W 118°15'2 4.7
2018-Feb-14 12:56N 33°44' W 118°13'2 4.7
2018-Feb-14 12:31N 33°46' W 118°13'0 0.4
2018-Feb-14 12:00N 33°46' W 118°13'0 0.6
2018-Feb-14 11:30N 33°46' W 118°13'1 2.0
2018-Feb-14 11:00N 33°45' W 118°13'0 0.0
2018-Feb-14 10:30N 33°45' W 118°13'0 0.0
2018-Feb-14 10:00N 33°45' W 118°13'0 0.0
2018-Feb-14 09:30N 33°45' W 118°13'0 0.0
2018-Feb-14 09:00N 33°45' W 118°13'0 0.0
2018-Feb-14 08:30N 33°45' W 118°13'0 0.0
2018-Feb-14 08:00N 33°45' W 118°13'1 0.3
2018-Feb-14 06:20N 33°45' W 118°12'3 8.8
2018-Feb-14 06:00N 33°43' W 118°15'1 1.9
2018-Feb-14 05:30N 33°44' W 118°15'0 0.5
2018-Feb-14 05:00N 33°44' W 118°16'0 0.0
2018-Feb-14 04:30N 33°44' W 118°16'0 0.0
2018-Feb-14 04:00N 33°44' W 118°16'1 1.2
2018-Feb-14 03:30N 33°43' W 118°16'3 5.9
2018-Feb-14 03:01N 33°44' W 118°12'0 0.9
2018-Feb-14 02:30N 33°45' W 118°12'1 1.2
2018-Feb-14 01:45N 33°44' W 118°12'0 0.2
2018-Feb-14 01:30N 33°44' W 118°12'0 0.1
2018-Feb-14 01:00N 33°44' W 118°12'0 0.0
2018-Feb-14 00:30N 33°44' W 118°12'1 1.7
2018-Feb-14 00:00N 33°44' W 118°12'3 5.2
2018-Feb-13 23:30N 33°46' W 118°15'2 4.9
2018-Feb-13 23:11N 33°45' W 118°16'1 4.3
2018-Feb-13 23:00N 33°45' W 118°16'1103.8
2018-Feb-13 22:59N 33°45' W 118°16'2 4.2
2018-Feb-13 22:31N 33°43' W 118°16'13242.3
2018-Feb-13 22:30N 33°44' W 118°16'2 3.0
2018-Feb-13 22:00N 33°43' W 118°15'31646.5
2018-Feb-13 22:00N 33°40' W 118°15'4 7.7
2018-Feb-13 21:30N 33°36' W 118°16'87252.3
2018-Feb-13 21:30N 33°44' W 118°16'0 0.0
2018-Feb-13 21:00N 33°44' W 118°16'0 0.0
2018-Feb-13 20:30N 33°44' W 118°16'0 0.0
2018-Feb-13 20:00N 33°44' W 118°16'0 0.0
2018-Feb-13 19:29N 33°44' W 118°16'0 0.0
2018-Feb-13 19:00N 33°44' W 118°16'0 0.0
2018-Feb-13 18:30N 33°44' W 118°16'0 0.0
2018-Feb-13 18:00N 33°44' W 118°16'0 0.0
2018-Feb-13 17:30N 33°44' W 118°16'0 0.0
2018-Feb-13 17:00N 33°44' W 118°16'0 0.5
2018-Feb-13 16:30N 33°44' W 118°15'1 1.2
2018-Feb-13 16:00N 33°43' W 118°16'1 2.8
2018-Feb-13 15:30N 33°45' W 118°16'2 4.6
2018-Feb-13 15:00N 33°43' W 118°15'3 5.5
2018-Feb-13 14:28N 33°45' W 118°12'1 1.8
2018-Feb-13 14:00N 33°44' W 118°12'1 1.2
2018-Feb-13 13:30N 33°44' W 118°12'617.6
2018-Feb-13 13:10N 33°39' W 118°15'530.3
2018-Feb-13 13:00N 33°43' W 118°16'368.8
2018-Feb-13 12:58N 33°40' W 118°15'4 8.2
2018-Feb-13 12:30N 33°44' W 118°15'1691.1
2018-Feb-13 12:30N 33°43' W 118°16'2 3.6
2018-Feb-13 12:00N 33°45' W 118°17'2233.5
2018-Feb-13 12:00N 33°43' W 118°15'3 5.4
2018-Feb-13 11:30N 33°45' W 118°16'047.4
2018-Feb-13 11:30N 33°45' W 118°16'0 0.0
2018-Feb-13 11:00N 33°45' W 118°16'0 0.0
2018-Feb-13 10:30N 33°45' W 118°16'1 1.3
2018-Feb-13 09:59N 33°44' W 118°16'1 1.3
2018-Feb-13 09:30N 33°44' W 118°16'0 0.0
2018-Feb-13 09:00N 33°44' W 118°16'0 0.0
2018-Feb-13 08:30N 33°44' W 118°16'0 0.0
2018-Feb-13 08:00N 33°44' W 118°16'0 0.0
2018-Feb-13 07:30N 33°44' W 118°16'0 0.0
2018-Feb-13 06:56N 33°44' W 118°16'0 0.0
2018-Feb-13 06:30N 33°44' W 118°16'0 0.0
2018-Feb-13 06:00N 33°44' W 118°16'0 0.0
2018-Feb-13 05:29N 33°44' W 118°16'0 0.0
2018-Feb-13 05:00N 33°44' W 118°16'0 0.0
2018-Feb-13 04:30N 33°44' W 118°16'0 0.0
2018-Feb-13 04:01N 33°44' W 118°16'1 1.1
2018-Feb-13 03:30N 33°44' W 118°16'2 4.6
2018-Feb-13 03:00N 33°43' W 118°14'0 0.1
2018-Feb-13 02:15N 33°43' W 118°14'0 0.9
2018-Feb-13 01:57N 33°44' W 118°13'2 3.4
2018-Feb-13 01:30N 33°45' W 118°13'2 4.4
2018-Feb-13 01:00N 33°44' W 118°10'0 0.0
2018-Feb-13 00:30N 33°44' W 118°10'1 2.5
2018-Feb-13 00:00N 33°44' W 118°12'0 0.0
2018-Feb-12 23:30N 33°44' W 118°12'0 0.0
2018-Feb-12 23:00N 33°44' W 118°12'0 0.0
2018-Feb-12 22:30N 33°44' W 118°12'0 0.5
2018-Feb-12 22:00N 33°44' W 118°11'0 0.1
2018-Feb-12 21:30N 33°44' W 118°11'0 0.0
2018-Feb-12 21:00N 33°44' W 118°11'2 4.1
2018-Feb-12 20:30N 33°45' W 118°14'1 1.2
2018-Feb-12 20:00N 33°45' W 118°14'1 2.6
2018-Feb-12 19:30N 33°44' W 118°13'3 5.3
2018-Feb-12 19:00N 33°44' W 118°16'2 4.4
2018-Feb-12 18:30N 33°46' W 118°16'3 5.2
2018-Feb-12 18:00N 33°43' W 118°16'1 1.1
2018-Feb-12 17:30N 33°44' W 118°16'0 0.0
2018-Feb-12 17:00N 33°44' W 118°16'0 0.0
2018-Feb-12 16:30N 33°44' W 118°16'0 0.0
2018-Feb-12 16:00N 33°44' W 118°16'1 2.0
2018-Feb-12 15:30N 33°43' W 118°15'  

Dump ship's entire track history